Current Weather Conditions: station 46183

sailwx.info

Wind from 140 at 13 knots gusting 17

Wave height 1.0 meters (3 feet), 8 second period

Air temperature 6.0° C

Last reported at 2017-Mar-23 20:00 UTC.
Time now 2017-Mar-23 22:21 UTC

Location: N 53°36' W 131°06'.
View on Google Maps.

See reports from other nearby stations

  
Tides and Currents Weather Stations Pressure Air Temp Water Temp Dewpoint Dewpoint Depression Visibility Wind Speed Wind Dir Waves Ship Positions
date/time (UTC)wind fromknots sea level pressurealtimeterstation pressurevisibilityair tempwater tempwave heightnotes
2017-Mar-23 20:00 140 13 gusting 17 6.0 1.0
2017-Mar-23 19:00 150 9 gusting 13 5.8 1.1
2017-Mar-23 18:00 160 13 gusting 17 6.0 1.2
2017-Mar-23 17:00 170 11 gusting 15 5.5 1.1
2017-Mar-23 16:00 190 7 gusting 11 5.7 1.2
2017-Mar-23 15:00 180 9 gusting 13 5.0 1.1
2017-Mar-23 14:00 210 9 gusting 11 4.5 1.2
2017-Mar-23 13:00 200 13 gusting 17 4.4 1.3
2017-Mar-23 12:00 210 15 gusting 17 4.3 1.2
2017-Mar-23 11:00 210 11 gusting 13 4.0 1.2
2017-Mar-23 10:00 190 13 gusting 17 4.8 1.3
2017-Mar-23 09:00 180 15 gusting 19 5.4 1.3
2017-Mar-23 08:00 130 15 gusting 19 4.6 1.3
2017-Mar-23 07:00 150 15 gusting 23 4.3 1.2
2017-Mar-23 06:00 140 15 gusting 17 5.2 1.2
2017-Mar-23 05:00 160 25 4.6
2017-Mar-23 04:00 160 15 gusting 19 5.5 1.4
2017-Mar-23 03:00 180 19 gusting 23 5.7 1.1
2017-Mar-23 02:00 200 11 gusting 13 4.9 1.1
2017-Mar-23 01:00 150 17 gusting 21 5.4 1.2
2017-Mar-23 00:00 170 17 gusting 21 6.0 1.0
2017-Mar-22 23:00 190 15 gusting 19 5.9 1.0
2017-Mar-22 22:00 6.5 0.8
2017-Mar-22 21:00 120 15 gusting 19 5.8 0.7
2017-Mar-22 20:00 140 11 gusting 15 5.6 0.7
2017-Mar-22 19:00 160 9 gusting 11 5.5 0.6
2017-Mar-22 18:00 160 7 gusting 9 5.2 0.6
2017-Mar-22 17:00 190 3 gusting 5 5.0 0.6
2017-Mar-22 16:00 240 1 gusting 3 4.7 0.5
2017-Mar-22 15:00 310 3 gusting 5 4.4 0.4
2017-Mar-22 14:00 300 5 gusting 7 4.2 0.4
2017-Mar-22 13:00 310 5 gusting 7 3.8 0.4
2017-Mar-22 12:00 340 5 gusting 7 3.8 0.4
2017-Mar-22 11:00 340 1 gusting 3 3.9 0.4
2017-Mar-22 10:00 080 1 gusting 3 4.0 0.3
2017-Mar-22 09:00 090 5 gusting 7 4.3 0.3
2017-Mar-22 08:00 060 5 gusting 5 4.7 0.3
2017-Mar-22 07:00 060 3 gusting 5 4.7 0.4
2017-Mar-22 06:00 100 3 gusting 5 4.8 0.5
2017-Mar-22 05:00 110 5 gusting 7 4.8 0.5
2017-Mar-22 04:00 120 7 gusting 11 5.1 0.5
2017-Mar-22 03:00 140 11 5.8
2017-Mar-22 02:00 170 15 gusting 17 6.3 0.3
2017-Mar-22 01:00 160 7 gusting 9 6.5 0.4
2017-Mar-22 00:00 110 3 gusting 3 6.6 0.4
2017-Mar-21 23:00 020 3 gusting 3 6.4 0.4
2017-Mar-21 22:00 350 3 gusting 5 6.1 0.4